createdAt,value
2022-11-15T00:01:58.924Z,32.42
2022-11-15T00:04:25.235Z,35.38
2022-11-15T00:06:51.538Z,34.42
2022-11-15T00:09:17.791Z,37.42
2022-11-15T00:11:44.089Z,34.40
2022-11-15T00:14:10.419Z,35.08
2022-11-15T00:16:36.669Z,40.35
2022-11-15T00:19:03.107Z,35.85
2022-11-15T00:21:29.386Z,37.95
2022-11-15T00:23:55.649Z,42.25
2022-11-15T00:26:21.953Z,41.15
2022-11-15T00:28:48.214Z,39.05
2022-11-15T00:31:15.292Z,42.33
2022-11-15T00:33:43.737Z,45.47
2022-11-15T00:36:10.578Z,49.30
2022-11-15T00:38:37.913Z,46.88
2022-11-15T00:41:09.078Z,44.05
2022-11-15T00:43:36.171Z,51.35
2022-11-15T00:46:03.263Z,52.53
2022-11-15T00:48:29.617Z,52.35
2022-11-15T00:50:55.875Z,54.50
2022-11-15T00:53:22.154Z,49.08
2022-11-15T00:55:48.372Z,57.50
2022-11-15T00:58:14.604Z,62.13
2022-11-15T01:00:40.958Z,48.08
2022-11-15T01:03:07.599Z,59.63
2022-11-15T01:05:33.900Z,59.08
2022-11-15T01:08:00.184Z,54.47
2022-11-15T01:10:26.837Z,56.88
2022-11-15T01:12:53.127Z,57.05
2022-11-15T01:15:19.423Z,56.35
2022-11-15T01:17:45.696Z,56.97
2022-11-15T01:20:12.678Z,48.50
2022-11-15T01:22:38.999Z,61.42
2022-11-15T01:25:05.428Z,57.88
2022-11-15T01:27:31.760Z,61.05
2022-11-15T01:29:57.996Z,55.33
2022-11-15T01:32:24.290Z,62.20
2022-11-15T01:34:50.546Z,65.00
2022-11-15T01:37:16.800Z,59.63
2022-11-15T01:39:43.587Z,55.25
2022-11-15T01:42:13.669Z,55.97
2022-11-15T01:44:44.832Z,54.83
2022-11-15T01:47:16.540Z,57.03
2022-11-15T01:50:00.279Z,51.63
2022-11-15T01:52:28.437Z,55.42
2022-11-15T01:54:57.436Z,57.83
2022-11-15T01:57:23.725Z,57.45
2022-11-15T01:59:49.987Z,51.90
2022-11-15T02:02:16.422Z,61.45
2022-11-15T02:04:44.085Z,58.88
2022-11-15T02:07:12.082Z,58.92
2022-11-15T02:09:39.325Z,54.30
2022-11-15T02:12:06.762Z,66.28
2022-11-15T02:14:33.320Z,59.92
2022-11-15T02:17:03.366Z,55.97
2022-11-15T02:19:39.448Z,57.10
2022-11-15T02:22:08.512Z,58.17
2022-11-15T02:24:55.024Z,55.03
2022-11-15T02:27:21.248Z,62.55
2022-11-15T02:29:50.284Z,56.95
2022-11-15T02:32:21.624Z,62.67
2022-11-15T02:34:51.027Z,56.00
2022-11-15T02:37:27.211Z,59.72
2022-11-15T02:40:11.969Z,55.75
2022-11-15T02:43:04.445Z,66.30
2022-11-15T02:45:37.970Z,67.10
2022-11-15T02:48:04.840Z,58.30
2022-11-15T02:50:32.697Z,67.63
2022-11-15T02:52:58.987Z,64.72
2022-11-15T02:55:35.500Z,65.72
2022-11-15T02:58:10.745Z,58.47
2022-11-15T03:00:40.907Z,50.30
2022-11-15T03:03:26.046Z,62.95
2022-11-15T03:05:55.423Z,74.47
2022-11-15T03:08:40.770Z,66.22
2022-11-15T03:11:07.031Z,64.30
2022-11-15T03:13:36.095Z,72.43
2022-11-15T03:16:08.862Z,66.93
2022-11-15T03:18:38.115Z,62.85
2022-11-15T03:21:06.452Z,64.10
2022-11-15T03:23:33.555Z,73.15
2022-11-15T03:26:01.495Z,72.82
2022-11-15T03:28:37.228Z,73.25
2022-11-15T03:31:24.834Z,74.65
2022-11-15T03:33:52.663Z,79.43
2022-11-15T03:36:19.177Z,73.70
2022-11-15T03:38:45.704Z,68.38
2022-11-15T03:41:24.392Z,64.57
2022-11-15T03:43:58.375Z,58.97
2022-11-15T03:46:26.971Z,62.88
2022-11-15T03:48:57.439Z,66.18
2022-11-15T03:51:23.861Z,72.10
2022-11-15T03:53:50.195Z,69.95
2022-11-15T03:56:16.471Z,73.78
2022-11-15T03:58:42.750Z,68.03
2022-11-15T04:01:09.120Z,72.47
2022-11-15T04:03:35.437Z,64.68
2022-11-15T04:06:01.702Z,73.00
2022-11-15T04:08:27.974Z,65.47
2022-11-15T04:10:54.254Z,65.32
2022-11-15T04:13:20.508Z,69.03
2022-11-15T04:15:46.772Z,64.20
2022-11-15T04:18:13.047Z,64.53
2022-11-15T04:20:58.224Z,69.47
2022-11-15T04:23:43.090Z,65.07
2022-11-15T04:26:11.824Z,67.68
2022-11-15T04:29:00.907Z,60.90
2022-11-15T04:31:27.521Z,64.78
2022-11-15T04:33:53.954Z,65.18
2022-11-15T04:36:39.342Z,67.13
2022-11-15T04:39:05.561Z,66.13
2022-11-15T04:41:31.816Z,59.45
2022-11-15T04:43:58.150Z,60.15
2022-11-15T04:46:25.139Z,62.10
2022-11-15T04:48:56.962Z,61.97
2022-11-15T04:51:24.758Z,66.00
2022-11-15T04:53:51.052Z,61.33
2022-11-15T04:56:17.294Z,60.50
2022-11-15T04:58:43.681Z,63.00
2022-11-15T05:01:11.089Z,63.00
2022-11-15T05:03:56.411Z,64.38
2022-11-15T05:06:22.749Z,61.17
2022-11-15T05:08:49.255Z,58.58
2022-11-15T05:11:15.507Z,62.75
2022-11-15T05:13:41.911Z,61.05
2022-11-15T05:16:08.242Z,60.97
2022-11-15T05:18:34.480Z,67.22
2022-11-15T05:21:04.371Z,54.17
2022-11-15T05:23:30.945Z,59.65
2022-11-15T05:26:03.920Z,60.70
2022-11-15T05:28:34.591Z,56.88
2022-11-15T05:31:04.728Z,57.40
2022-11-15T05:33:31.857Z,57.72
2022-11-15T05:36:03.862Z,51.90
2022-11-15T05:38:30.235Z,61.35
2022-11-15T05:40:56.516Z,60.80
2022-11-15T05:43:23.183Z,57.60
2022-11-15T05:45:49.520Z,58.92
2022-11-15T05:48:16.012Z,55.38
2022-11-15T05:50:43.752Z,65.03
2022-11-15T05:53:11.969Z,58.25
2022-11-15T05:55:39.920Z,58.55
2022-11-15T05:58:06.350Z,62.03
2022-11-15T06:00:32.661Z,52.33
2022-11-15T06:02:58.992Z,60.35
2022-11-15T06:05:25.269Z,58.25
2022-11-15T06:07:51.569Z,56.67
2022-11-15T06:10:17.904Z,58.28
2022-11-15T06:12:44.173Z,59.50
2022-11-15T06:15:10.786Z,58.42
2022-11-15T06:17:37.156Z,64.65
2022-11-15T06:20:04.349Z,61.60
2022-11-15T06:22:30.636Z,63.00
2022-11-15T06:25:00.191Z,55.72
2022-11-15T06:27:29.171Z,60.75
2022-11-15T06:29:55.512Z,59.95
2022-11-15T06:32:21.786Z,57.22
2022-11-15T06:34:48.065Z,63.10
2022-11-15T06:37:14.317Z,55.42
2022-11-15T06:39:40.860Z,57.92
2022-11-15T06:42:08.898Z,59.25
2022-11-15T06:44:35.180Z,55.78
2022-11-15T06:47:01.459Z,59.58
2022-11-15T06:49:27.826Z,54.35
2022-11-15T06:51:54.092Z,59.42
2022-11-15T06:54:21.732Z,58.83
2022-11-15T06:56:48.010Z,65.03
2022-11-15T06:59:14.307Z,71.40
2022-11-15T07:01:40.866Z,68.85
2022-11-15T07:04:07.313Z,64.28
2022-11-15T07:06:33.642Z,57.83
2022-11-15T07:08:59.918Z,59.05
2022-11-15T07:11:26.203Z,54.47
2022-11-15T07:13:52.498Z,60.25
2022-11-15T07:16:18.763Z,51.92
2022-11-15T07:18:45.225Z,61.35
2022-11-15T07:21:12.825Z,60.25
2022-11-15T07:23:39.937Z,61.95
2022-11-15T07:26:06.484Z,50.20
2022-11-15T07:28:33.215Z,57.58
2022-11-15T07:31:02.752Z,60.90
2022-11-15T07:33:29.326Z,59.22
2022-11-15T07:35:59.146Z,55.08
2022-11-15T07:38:25.418Z,47.17
2022-11-15T07:40:57.175Z,49.67
2022-11-15T07:43:23.478Z,53.17
2022-11-15T07:45:52.379Z,52.97
2022-11-15T07:48:21.010Z,52.17
2022-11-15T07:50:47.320Z,48.92
2022-11-15T07:53:13.618Z,50.45
2022-11-15T07:55:41.068Z,46.90
2022-11-15T07:58:09.233Z,49.30
2022-11-15T08:00:35.602Z,52.30
2022-11-15T08:03:02.699Z,55.08
2022-11-15T08:05:28.949Z,41.00
2022-11-15T08:07:58.287Z,47.47
2022-11-15T08:10:25.091Z,43.45
2022-11-15T08:13:17.901Z,41.75
2022-11-15T08:15:44.717Z,43.85
2022-11-15T08:18:13.062Z,42.00
2022-11-15T08:20:39.430Z,45.63
2022-11-15T08:23:06.207Z,45.15
2022-11-15T08:25:33.308Z,44.47
2022-11-15T08:28:01.064Z,41.00
2022-11-15T08:30:27.996Z,36.97
2022-11-15T08:32:54.756Z,42.63
2022-11-15T08:35:26.166Z,46.55
2022-11-15T08:37:55.178Z,39.47
2022-11-15T08:40:21.527Z,38.55
2022-11-15T08:42:48.254Z,34.63
2022-11-15T08:45:14.599Z,40.05
2022-11-15T08:47:40.912Z,39.95
2022-11-15T08:50:07.551Z,34.97
2022-11-15T08:52:34.037Z,34.10
2022-11-15T08:55:00.393Z,38.17
2022-11-15T08:57:29.284Z,37.70
2022-11-15T08:59:55.643Z,36.22
2022-11-15T09:02:22.129Z,32.35
2022-11-15T09:04:49.053Z,32.53
2022-11-15T09:07:15.664Z,29.63
2022-11-15T09:09:42.145Z,26.90
2022-11-15T09:12:08.755Z,27.17
2022-11-15T09:14:35.180Z,25.65
2022-11-15T09:17:02.166Z,32.08
2022-11-15T09:19:28.522Z,26.15
2022-11-15T09:21:55.287Z,31.42
2022-11-15T09:24:21.831Z,27.08
2022-11-15T09:26:50.183Z,36.45
2022-11-15T09:29:16.458Z,25.15
2022-11-15T09:31:43.010Z,25.85
2022-11-15T09:34:09.284Z,23.83
2022-11-15T09:36:35.955Z,24.88
2022-11-15T09:39:02.264Z,25.48
2022-11-15T09:41:39.358Z,22.08
2022-11-15T09:44:25.370Z,22.10
2022-11-15T09:46:58.236Z,22.70
2022-11-15T09:49:24.639Z,18.95
2022-11-15T09:51:52.201Z,19.25
2022-11-15T09:54:52.123Z,21.35
2022-11-15T09:57:17.977Z,18.52
2022-11-15T09:59:44.216Z,14.80
2022-11-15T10:02:17.660Z,15.52
2022-11-15T10:04:43.978Z,17.52
2022-11-15T10:07:21.832Z,15.07
2022-11-15T10:09:58.124Z,12.88
2022-11-15T10:12:25.592Z,15.80
2022-11-15T10:14:55.267Z,10.25
2022-11-15T10:17:27.409Z,14.10
2022-11-15T10:20:02.389Z,12.10
2022-11-15T10:22:31.484Z,10.23
2022-11-15T10:25:11.107Z,11.85
2022-11-15T10:27:37.386Z,9.05
2022-11-15T10:30:05.147Z,9.65
2022-11-15T10:32:33.812Z,9.20
2022-11-15T10:35:00.086Z,10.70
2022-11-15T10:37:30.495Z,12.10
2022-11-15T10:40:19.920Z,7.47
2022-11-15T10:42:46.685Z,10.43
2022-11-15T10:45:26.621Z,8.68
2022-11-15T10:47:52.910Z,7.32
2022-11-15T10:50:32.559Z,5.95
2022-11-15T10:52:59.526Z,6.95
2022-11-15T10:55:27.622Z,5.28
2022-11-15T10:57:55.984Z,6.53
2022-11-15T11:00:22.207Z,5.30
2022-11-15T11:02:57.769Z,7.40
2022-11-15T11:07:55.990Z,7.78
2022-11-15T11:10:49.649Z,6.97
2022-11-15T11:13:25.751Z,9.00
2022-11-15T11:16:07.358Z,5.32
2022-11-15T11:18:53.987Z,4.90
2022-11-15T11:21:31.966Z,4.82
2022-11-15T11:24:13.124Z,7.57
2022-11-15T11:26:42.386Z,4.20
2022-11-15T11:29:21.473Z,5.38
2022-11-15T11:31:55.568Z,3.72
2022-11-15T11:34:38.757Z,8.10
2022-11-15T11:37:11.017Z,5.07
2022-11-15T11:39:46.589Z,3.88
2022-11-15T11:44:51.461Z,5.65
2022-11-15T11:47:38.416Z,4.95
2022-11-15T11:50:14.275Z,4.13
2022-11-15T11:52:44.164Z,4.55
2022-11-15T11:55:45.796Z,4.03
2022-11-15T11:58:31.272Z,7.43
2022-11-15T12:01:12.427Z,3.28
2022-11-15T12:03:44.628Z,5.32
2022-11-15T12:06:19.883Z,6.75
2022-11-15T12:08:49.886Z,2.40
2022-11-15T12:11:23.512Z,5.22
2022-11-15T12:13:51.678Z,6.53
2022-11-15T12:16:20.695Z,10.20
2022-11-15T12:18:49.929Z,5.55
2022-11-15T12:21:35.058Z,7.38
2022-11-15T12:24:07.882Z,2.97
2022-11-15T12:26:37.567Z,4.10
2022-11-15T12:29:16.719Z,6.00
2022-11-15T12:31:45.724Z,6.10
2022-11-15T12:34:21.153Z,6.10
2022-11-15T12:36:48.022Z,3.92
2022-11-15T12:39:14.930Z,7.22
2022-11-15T12:41:43.044Z,3.60
2022-11-15T12:44:13.677Z,3.63
2022-11-15T12:46:39.907Z,3.13
2022-11-15T12:49:13.008Z,6.60
2022-11-15T12:51:48.523Z,5.20
2022-11-15T12:56:41.403Z,3.00
2022-11-15T12:59:08.050Z,2.47
2022-11-15T13:01:34.928Z,4.20
2022-11-15T13:04:15.431Z,6.28
2022-11-15T13:06:46.329Z,4.30
2022-11-15T13:09:30.858Z,1.80
2022-11-15T13:11:57.858Z,2.90
2022-11-15T13:14:36.224Z,4.50
2022-11-15T13:17:02.577Z,4.70
2022-11-15T13:19:29.515Z,2.65
2022-11-15T13:22:14.660Z,3.75
2022-11-15T13:24:41.115Z,2.75
2022-11-15T13:27:13.717Z,2.58
2022-11-15T13:29:43.947Z,3.97
2022-11-15T13:32:16.871Z,6.47
2022-11-15T13:34:53.768Z,4.93
2022-11-15T13:37:23.214Z,3.42
2022-11-15T13:39:50.248Z,4.30
2022-11-15T13:42:20.893Z,2.22
2022-11-15T13:44:57.926Z,2.67
2022-11-15T13:47:27.749Z,6.10
2022-11-15T13:49:54.284Z,5.53
2022-11-15T13:52:21.654Z,2.30
2022-11-15T13:55:11.308Z,5.20
2022-11-15T13:57:41.068Z,2.80
2022-11-15T14:00:23.532Z,5.97
2022-11-15T14:02:49.781Z,3.28
2022-11-15T14:05:23.037Z,3.95
2022-11-15T14:07:59.652Z,3.17
2022-11-15T14:10:30.624Z,4.63
2022-11-15T14:12:57.161Z,3.03
2022-11-15T14:15:31.140Z,4.57
2022-11-15T14:17:57.628Z,5.97
2022-11-15T14:20:26.663Z,4.80
2022-11-15T14:22:56.905Z,7.15
2022-11-15T14:25:24.212Z,5.63
2022-11-15T14:28:08.859Z,11.23
2022-11-15T14:30:35.257Z,3.78
2022-11-15T14:33:01.800Z,3.58
2022-11-15T14:35:28.275Z,2.45
2022-11-15T14:37:54.527Z,4.63
2022-11-15T14:40:21.787Z,5.15
2022-11-15T14:42:49.143Z,5.15
2022-11-15T14:45:16.978Z,2.75
2022-11-15T14:47:43.658Z,3.65
2022-11-15T14:50:14.258Z,3.63
2022-11-15T14:52:41.125Z,6.85
2022-11-15T14:55:28.548Z,2.67
2022-11-15T14:57:55.376Z,4.78
2022-11-15T15:00:22.074Z,2.15
2022-11-15T15:02:49.276Z,4.93
2022-11-15T15:05:17.010Z,5.15
2022-11-15T15:07:43.954Z,3.65
2022-11-15T15:10:39.449Z,5.85
2022-11-15T15:12:56.802Z,2.13
2022-11-15T15:15:26.216Z,5.97
2022-11-15T15:17:52.546Z,5.65
2022-11-15T15:20:19.090Z,4.88
2022-11-15T15:22:45.765Z,2.38
2022-11-15T15:25:22.376Z,1.60
2022-11-15T15:27:48.819Z,2.65
2022-11-15T15:30:15.170Z,1.90
2022-11-15T15:32:41.492Z,4.75
2022-11-15T15:35:12.332Z,5.55
2022-11-15T15:37:39.471Z,4.25
2022-11-15T15:40:11.137Z,3.55
2022-11-15T15:42:37.403Z,6.00
2022-11-15T15:45:03.899Z,4.60
2022-11-15T15:47:30.224Z,3.38
2022-11-15T15:49:56.521Z,3.42
2022-11-15T15:52:22.800Z,2.83
2022-11-15T15:54:49.068Z,3.67
2022-11-15T15:57:15.393Z,2.40
2022-11-15T15:59:43.233Z,1.52
2022-11-15T16:02:13.302Z,3.78
2022-11-15T16:04:40.344Z,5.35
2022-11-15T16:07:07.133Z,2.58
2022-11-15T16:09:52.226Z,4.28
2022-11-15T16:12:18.635Z,2.77
2022-11-15T16:14:44.963Z,3.00
2022-11-15T16:17:22.162Z,4.70
2022-11-15T16:19:48.491Z,2.15
2022-11-15T16:22:14.812Z,5.75
2022-11-15T16:24:41.160Z,5.72
2022-11-15T16:27:13.323Z,2.92
2022-11-15T16:29:39.595Z,5.70
2022-11-15T16:32:05.880Z,3.20
2022-11-15T16:34:36.037Z,4.32
2022-11-15T16:37:05.498Z,3.38
2022-11-15T16:39:32.351Z,2.92
2022-11-15T16:41:58.904Z,2.65
2022-11-15T16:44:25.210Z,4.72
2022-11-15T16:46:54.320Z,1.77
2022-11-15T16:49:21.168Z,2.78
2022-11-15T16:51:50.771Z,7.35
2022-11-15T16:54:17.599Z,4.50
2022-11-15T16:56:43.939Z,2.00
2022-11-15T16:59:14.673Z,6.53
2022-11-15T17:01:50.479Z,2.53
2022-11-15T17:04:18.089Z,3.67
2022-11-15T17:06:44.944Z,5.13
2022-11-15T17:09:12.576Z,4.55
2022-11-15T17:11:40.569Z,2.40
2022-11-15T17:14:06.964Z,5.10
2022-11-15T17:16:34.216Z,8.63
2022-11-15T17:19:01.820Z,2.67
2022-11-15T17:21:32.603Z,1.92
2022-11-15T17:24:00.205Z,2.70
2022-11-15T17:26:32.988Z,3.72
2022-11-15T17:29:01.682Z,5.43
2022-11-15T17:31:30.123Z,4.40
2022-11-15T17:33:56.747Z,5.95
2022-11-15T17:36:23.026Z,2.95
2022-11-15T17:38:56.571Z,5.32
2022-11-15T17:41:25.601Z,3.47
2022-11-15T17:43:51.901Z,6.15
2022-11-15T17:46:20.916Z,5.30
2022-11-15T17:48:47.702Z,7.05
2022-11-15T17:51:15.081Z,5.15
2022-11-15T17:53:43.240Z,5.30
2022-11-15T17:56:13.691Z,3.35
2022-11-15T17:58:40.372Z,4.20
2022-11-15T18:01:12.647Z,3.05
2022-11-15T18:03:39.129Z,4.35
2022-11-15T18:06:06.242Z,4.97
2022-11-15T18:08:33.185Z,6.20
2022-11-15T18:11:07.699Z,5.40
2022-11-15T18:13:37.643Z,5.28
2022-11-15T18:16:04.707Z,6.55
2022-11-15T18:18:32.177Z,5.28
2022-11-15T18:21:05.732Z,7.25
2022-11-15T18:23:32.877Z,25.48
2022-11-15T18:25:59.727Z,6.28
2022-11-15T18:28:30.533Z,8.57
2022-11-15T18:30:58.144Z,9.85
2022-11-15T18:33:24.473Z,4.38
2022-11-15T18:35:50.792Z,5.80
2022-11-15T18:38:17.298Z,5.35
2022-11-15T18:40:43.539Z,9.00
2022-11-15T18:43:09.791Z,4.32
2022-11-15T18:45:36.055Z,7.88
2022-11-15T18:48:02.337Z,4.65
2022-11-15T18:50:28.869Z,6.15
2022-11-15T18:52:55.118Z,5.03
2022-11-15T18:55:21.375Z,6.60
2022-11-15T18:57:47.653Z,4.93
2022-11-15T19:00:14.339Z,5.88
2022-11-15T19:02:40.878Z,9.90
2022-11-15T19:05:07.570Z,6.45
2022-11-15T19:07:33.934Z,6.00
2022-11-15T19:10:00.256Z,6.65
2022-11-15T19:12:27.993Z,7.43
2022-11-15T19:14:54.273Z,8.82
2022-11-15T19:17:20.587Z,7.82
2022-11-15T19:19:46.893Z,7.20
2022-11-15T19:22:13.443Z,7.15
2022-11-15T19:24:39.711Z,9.32
2022-11-15T19:27:05.987Z,8.23
2022-11-15T19:29:32.229Z,7.47
2022-11-15T19:31:58.493Z,8.70
2022-11-15T19:34:24.723Z,7.22
2022-11-15T19:36:51.159Z,6.88
2022-11-15T19:39:18.398Z,7.63
2022-11-15T19:41:44.998Z,13.93
2022-11-15T19:44:12.432Z,8.32
2022-11-15T19:46:39.383Z,9.13
2022-11-15T19:49:07.865Z,8.13
2022-11-15T19:51:34.282Z,10.90
2022-11-15T19:54:03.551Z,8.63
2022-11-15T19:56:29.816Z,9.57
2022-11-15T19:58:56.556Z,8.23
2022-11-15T20:01:24.560Z,6.93
2022-11-15T20:03:53.424Z,10.25
2022-11-15T20:06:20.950Z,9.80
2022-11-15T20:08:47.973Z,10.88
2022-11-15T20:11:14.905Z,11.43
2022-11-15T20:13:42.393Z,8.95
2022-11-15T20:16:09.189Z,11.60
2022-11-15T20:18:36.878Z,7.78
2022-11-15T20:21:06.207Z,12.20
2022-11-15T20:23:32.457Z,11.23
2022-11-15T20:25:58.733Z,11.32
2022-11-15T20:28:26.255Z,9.45
2022-11-15T20:30:53.627Z,10.98
2022-11-15T20:33:20.008Z,10.90
2022-11-15T20:35:46.341Z,12.07
2022-11-15T20:38:12.641Z,9.95
2022-11-15T20:40:39.345Z,13.52
2022-11-15T20:43:05.924Z,13.18
2022-11-15T20:45:32.201Z,12.77
2022-11-15T20:47:58.738Z,13.43
2022-11-15T20:50:42.012Z,12.63
2022-11-15T20:53:10.271Z,11.13
2022-11-15T20:55:43.610Z,12.93
2022-11-15T20:58:10.410Z,10.13
2022-11-15T21:00:38.554Z,11.38
2022-11-15T21:03:08.392Z,12.13
2022-11-15T21:05:35.107Z,11.48
2022-11-15T21:08:03.645Z,12.68
2022-11-15T21:10:48.330Z,13.30
2022-11-15T21:13:14.664Z,13.13
2022-11-15T21:15:41.504Z,15.40
2022-11-15T21:18:08.130Z,14.45
2022-11-15T21:20:34.515Z,15.13
2022-11-15T21:23:00.776Z,11.07
2022-11-15T21:25:27.104Z,16.02
2022-11-15T21:27:53.406Z,13.10
2022-11-15T21:30:19.640Z,15.57
2022-11-15T21:32:45.896Z,18.67
2022-11-15T21:35:12.567Z,15.70
2022-11-15T21:37:38.839Z,15.05
2022-11-15T21:40:05.558Z,14.40
2022-11-15T21:42:31.851Z,15.45
2022-11-15T21:44:58.119Z,16.48
2022-11-15T21:47:24.358Z,14.98
2022-11-15T21:49:50.631Z,15.85
2022-11-15T21:52:16.926Z,18.33
2022-11-15T21:54:44.470Z,18.80
2022-11-15T21:57:11.338Z,19.38
2022-11-15T22:00:00.592Z,18.80
2022-11-15T22:02:26.844Z,14.43
2022-11-15T22:04:54.138Z,16.95
2022-11-15T22:07:20.545Z,18.52
2022-11-15T22:09:46.848Z,17.13
2022-11-15T22:12:13.540Z,19.73
2022-11-15T22:14:39.803Z,21.00
2022-11-15T22:17:06.049Z,18.92
2022-11-15T22:19:32.351Z,17.42
2022-11-15T22:21:58.632Z,15.98
2022-11-15T22:24:25.186Z,17.50
2022-11-15T22:26:51.414Z,17.33
2022-11-15T22:29:17.707Z,16.92
2022-11-15T22:31:43.974Z,16.45
2022-11-15T22:34:10.323Z,19.52
2022-11-15T22:36:58.433Z,16.65
2022-11-15T22:39:22.879Z,16.63
2022-11-15T22:41:49.167Z,17.25
2022-11-15T22:44:15.463Z,16.23
2022-11-15T22:46:41.789Z,14.60
2022-11-15T22:49:09.141Z,15.23
2022-11-15T22:51:35.632Z,16.23
2022-11-15T22:54:01.923Z,14.13
2022-11-15T22:56:28.178Z,17.73
2022-11-15T22:58:54.413Z,16.80
2022-11-15T23:01:21.775Z,16.10
2022-11-15T23:03:48.102Z,18.45
2022-11-15T23:06:14.393Z,16.70
2022-11-15T23:08:40.972Z,14.50
2022-11-15T23:11:28.031Z,16.25
2022-11-15T23:13:54.299Z,15.55
2022-11-15T23:16:23.984Z,16.63
2022-11-15T23:18:51.674Z,18.88
2022-11-15T23:21:39.425Z,17.27
2022-11-15T23:24:06.156Z,19.98
2022-11-15T23:26:32.825Z,16.73
2022-11-15T23:28:59.199Z,16.83
2022-11-15T23:31:44.125Z,17.27
2022-11-15T23:34:11.423Z,19.00
2022-11-15T23:36:37.727Z,21.08
2022-11-15T23:39:04.172Z,18.40
2022-11-15T23:41:30.415Z,17.92
2022-11-15T23:43:56.674Z,19.98
2022-11-15T23:46:23.057Z,16.38
2022-11-15T23:48:49.302Z,14.90
2022-11-15T23:51:15.619Z,17.27
2022-11-15T23:53:43.461Z,20.50
2022-11-15T23:56:11.445Z,20.80
2022-11-15T23:58:37.775Z,20.00
